sensor_id;sensor_type;location;lat;lon;timestamp;P1;durP1;ratioP1;P2;durP2;ratioP2
30872;SDS011;17579;42.690;2.586;2023-04-25T00:00:09;1.88;;;1.15;;
30872;SDS011;17579;42.690;2.586;2023-04-25T00:02:46;2.03;;;1.20;;
30872;SDS011;17579;42.690;2.586;2023-04-25T00:05:14;2.50;;;1.15;;
30872;SDS011;17579;42.690;2.586;2023-04-25T00:07:48;3.38;;;1.60;;
30872;SDS011;17579;42.690;2.586;2023-04-25T00:10:15;3.00;;;1.20;;
30872;SDS011;17579;42.690;2.586;2023-04-25T00:12:40;1.45;;;1.02;;
30872;SDS011;17579;42.690;2.586;2023-04-25T00:15:11;2.03;;;1.10;;
30872;SDS011;17579;42.690;2.586;2023-04-25T00:17:43;2.08;;;1.08;;
30872;SDS011;17579;42.690;2.586;2023-04-25T00:20:31;1.67;;;1.10;;
30872;SDS011;17579;42.690;2.586;2023-04-25T00:22:58;2.50;;;1.60;;
30872;SDS011;17579;42.690;2.586;2023-04-25T00:25:27;1.27;;;1.00;;
30872;SDS011;17579;42.690;2.586;2023-04-25T00:27:54;2.80;;;1.33;;
30872;SDS011;17579;42.690;2.586;2023-04-25T00:30:28;2.17;;;1.00;;
30872;SDS011;17579;42.690;2.586;2023-04-25T00:32:56;1.98;;;1.33;;
30872;SDS011;17579;42.690;2.586;2023-04-25T00:35:22;1.48;;;1.00;;
30872;SDS011;17579;42.690;2.586;2023-04-25T00:37:48;2.95;;;1.40;;
30872;SDS011;17579;42.690;2.586;2023-04-25T00:40:14;2.42;;;1.30;;
30872;SDS011;17579;42.690;2.586;2023-04-25T00:42:40;2.92;;;1.08;;
30872;SDS011;17579;42.690;2.586;2023-04-25T00:45:30;2.95;;;1.20;;
30872;SDS011;17579;42.690;2.586;2023-04-25T00:47:56;2.58;;;1.10;;
30872;SDS011;17579;42.690;2.586;2023-04-25T00:50:23;1.38;;;0.90;;
30872;SDS011;17579;42.690;2.586;2023-04-25T00:52:49;1.98;;;1.10;;
30872;SDS011;17579;42.690;2.586;2023-04-25T00:55:16;1.48;;;1.20;;
30872;SDS011;17579;42.690;2.586;2023-04-25T00:57:48;2.30;;;1.33;;
30872;SDS011;17579;42.690;2.586;2023-04-25T01:00:17;3.05;;;1.13;;
30872;SDS011;17579;42.690;2.586;2023-04-25T01:02:46;2.85;;;1.30;;
30872;SDS011;17579;42.690;2.586;2023-04-25T01:05:12;1.88;;;1.00;;
30872;SDS011;17579;42.690;2.586;2023-04-25T01:07:38;2.15;;;1.00;;
30872;SDS011;17579;42.690;2.586;2023-04-25T01:10:07;1.90;;;1.17;;
30872;SDS011;17579;42.690;2.586;2023-04-25T01:12:36;2.53;;;1.20;;
30872;SDS011;17579;42.690;2.586;2023-04-25T01:15:10;2.35;;;1.13;;
30872;SDS011;17579;42.690;2.586;2023-04-25T01:17:41;2.65;;;1.10;;
30872;SDS011;17579;42.690;2.586;2023-04-25T01:20:11;1.92;;;1.02;;
30872;SDS011;17579;42.690;2.586;2023-04-25T01:22:37;1.13;;;0.98;;
30872;SDS011;17579;42.690;2.586;2023-04-25T01:25:03;1.35;;;1.10;;
30872;SDS011;17579;42.690;2.586;2023-04-25T01:27:33;3.35;;;1.08;;
30872;SDS011;17579;42.690;2.586;2023-04-25T01:30:03;1.67;;;1.02;;
30872;SDS011;17579;42.690;2.586;2023-04-25T01:32:31;2.95;;;1.35;;
30872;SDS011;17579;42.690;2.586;2023-04-25T01:35:10;2.53;;;1.25;;
30872;SDS011;17579;42.690;2.586;2023-04-25T01:37:37;2.05;;;1.10;;
30872;SDS011;17579;42.690;2.586;2023-04-25T01:40:11;1.23;;;0.95;;
30872;SDS011;17579;42.690;2.586;2023-04-25T01:42:39;2.58;;;1.27;;
30872;SDS011;17579;42.690;2.586;2023-04-25T01:45:28;2.03;;;0.98;;
30872;SDS011;17579;42.690;2.586;2023-04-25T01:47:54;1.65;;;1.10;;
30872;SDS011;17579;42.690;2.586;2023-04-25T01:50:26;1.40;;;1.08;;
30872;SDS011;17579;42.690;2.586;2023-04-25T01:52:54;2.33;;;1.00;;
30872;SDS011;17579;42.690;2.586;2023-04-25T01:55:26;2.63;;;1.10;;
30872;SDS011;17579;42.690;2.586;2023-04-25T01:57:52;2.00;;;1.00;;
30872;SDS011;17579;42.690;2.586;2023-04-25T02:00:25;1.05;;;0.95;;
30872;SDS011;17579;42.690;2.586;2023-04-25T02:05:34;2.28;;;1.27;;
30872;SDS011;17579;42.690;2.586;2023-04-25T02:08:02;2.42;;;1.10;;
30872;SDS011;17579;42.690;2.586;2023-04-25T02:10:32;1.55;;;1.20;;
30872;SDS011;17579;42.690;2.586;2023-04-25T02:13:09;2.05;;;1.13;;
30872;SDS011;17579;42.690;2.586;2023-04-25T02:15:58;2.30;;;1.05;;
30872;SDS011;17579;42.690;2.586;2023-04-25T02:18:33;2.33;;;1.10;;
30872;SDS011;17579;42.690;2.586;2023-04-25T02:21:04;1.20;;;1.10;;
30872;SDS011;17579;42.690;2.586;2023-04-25T02:23:32;2.92;;;1.30;;
30872;SDS011;17579;42.690;2.586;2023-04-25T02:26:04;2.40;;;1.00;;
30872;SDS011;17579;42.690;2.586;2023-04-25T02:28:51;1.48;;;1.08;;
30872;SDS011;17579;42.690;2.586;2023-04-25T02:31:35;1.80;;;1.10;;
30872;SDS011;17579;42.690;2.586;2023-04-25T02:34:01;1.77;;;1.33;;
30872;SDS011;17579;42.690;2.586;2023-04-25T02:36:29;2.35;;;1.00;;
30872;SDS011;17579;42.690;2.586;2023-04-25T02:39:01;3.05;;;1.00;;
30872;SDS011;17579;42.690;2.586;2023-04-25T02:41:29;1.42;;;0.90;;
30872;SDS011;17579;42.690;2.586;2023-04-25T02:44:01;1.88;;;1.20;;
30872;SDS011;17579;42.690;2.586;2023-04-25T02:46:31;2.55;;;1.13;;
30872;SDS011;17579;42.690;2.586;2023-04-25T02:48:57;1.90;;;1.27;;
30872;SDS011;17579;42.690;2.586;2023-04-25T02:51:36;1.10;;;1.00;;
30872;SDS011;17579;42.690;2.586;2023-04-25T02:54:08;1.40;;;0.88;;
30872;SDS011;17579;42.690;2.586;2023-04-25T02:56:54;1.88;;;1.20;;
30872;SDS011;17579;42.690;2.586;2023-04-25T02:59:19;1.17;;;1.00;;
30872;SDS011;17579;42.690;2.586;2023-04-25T03:01:57;2.08;;;0.95;;
30872;SDS011;17579;42.690;2.586;2023-04-25T03:04:23;2.40;;;0.90;;
30872;SDS011;17579;42.690;2.586;2023-04-25T03:06:59;1.30;;;1.15;;
30872;SDS011;17579;42.690;2.586;2023-04-25T03:09:31;1.80;;;0.85;;
30872;SDS011;17579;42.690;2.586;2023-04-25T03:11:59;2.13;;;1.20;;
30872;SDS011;17579;42.690;2.586;2023-04-25T03:14:28;1.77;;;0.93;;
30872;SDS011;17579;42.690;2.586;2023-04-25T03:16:57;1.42;;;0.93;;
30872;SDS011;17579;42.690;2.586;2023-04-25T03:19:25;1.88;;;0.90;;
30872;SDS011;17579;42.690;2.586;2023-04-25T03:21:51;2.15;;;0.90;;
30872;SDS011;17579;42.690;2.586;2023-04-25T03:24:19;1.75;;;1.08;;
30872;SDS011;17579;42.690;2.586;2023-04-25T03:26:45;2.22;;;1.13;;
30872;SDS011;17579;42.690;2.586;2023-04-25T03:29:23;1.55;;;0.95;;
30872;SDS011;17579;42.690;2.586;2023-04-25T03:31:52;4.18;;;1.00;;
30872;SDS011;17579;42.690;2.586;2023-04-25T03:34:41;1.10;;;0.90;;
30872;SDS011;17579;42.690;2.586;2023-04-25T03:39:53;0.93;;;0.90;;
30872;SDS011;17579;42.690;2.586;2023-04-25T03:42:19;0.80;;;0.80;;
30872;SDS011;17579;42.690;2.586;2023-04-25T03:44:47;1.25;;;1.05;;
30872;SDS011;17579;42.690;2.586;2023-04-25T03:47:22;2.40;;;1.17;;
30872;SDS011;17579;42.690;2.586;2023-04-25T03:49:58;1.45;;;0.82;;
30872;SDS011;17579;42.690;2.586;2023-04-25T03:52:29;1.83;;;1.20;;
30872;SDS011;17579;42.690;2.586;2023-04-25T03:55:06;1.73;;;0.90;;
30872;SDS011;17579;42.690;2.586;2023-04-25T03:57:44;1.42;;;0.85;;
30872;SDS011;17579;42.690;2.586;2023-04-25T04:00:23;2.45;;;1.20;;
30872;SDS011;17579;42.690;2.586;2023-04-25T04:02:49;1.20;;;1.10;;
30872;SDS011;17579;42.690;2.586;2023-04-25T04:05:22;1.42;;;0.95;;
30872;SDS011;17579;42.690;2.586;2023-04-25T04:07:48;1.83;;;1.10;;
30872;SDS011;17579;42.690;2.586;2023-04-25T04:10:19;1.13;;;0.93;;
30872;SDS011;17579;42.690;2.586;2023-04-25T04:12:45;1.75;;;1.20;;
30872;SDS011;17579;42.690;2.586;2023-04-25T04:15:11;2.92;;;1.20;;
30872;SDS011;17579;42.690;2.586;2023-04-25T04:17:39;1.65;;;1.02;;
30872;SDS011;17579;42.690;2.586;2023-04-25T04:20:08;1.90;;;1.10;;
30872;SDS011;17579;42.690;2.586;2023-04-25T04:22:34;1.85;;;1.00;;
30872;SDS011;17579;42.690;2.586;2023-04-25T04:25:10;2.55;;;1.00;;
30872;SDS011;17579;42.690;2.586;2023-04-25T04:27:37;2.60;;;1.00;;
30872;SDS011;17579;42.690;2.586;2023-04-25T04:30:04;1.67;;;1.00;;
30872;SDS011;17579;42.690;2.586;2023-04-25T04:32:41;1.63;;;0.90;;
30872;SDS011;17579;42.690;2.586;2023-04-25T04:35:20;0.80;;;0.80;;
30872;SDS011;17579;42.690;2.586;2023-04-25T04:37:46;1.60;;;0.90;;
30872;SDS011;17579;42.690;2.586;2023-04-25T04:40:53;1.15;;;0.98;;
30872;SDS011;17579;42.690;2.586;2023-04-25T04:43:19;2.25;;;1.10;;
30872;SDS011;17579;42.690;2.586;2023-04-25T04:45:50;1.58;;;1.00;;
30872;SDS011;17579;42.690;2.586;2023-04-25T04:48:18;1.38;;;1.10;;
30872;SDS011;17579;42.690;2.586;2023-04-25T04:50:47;3.13;;;1.10;;
30872;SDS011;17579;42.690;2.586;2023-04-25T04:53:17;1.20;;;0.90;;
30872;SDS011;17579;42.690;2.586;2023-04-25T04:55:49;2.00;;;1.10;;
30872;SDS011;17579;42.690;2.586;2023-04-25T04:58:17;1.02;;;0.85;;
30872;SDS011;17579;42.690;2.586;2023-04-25T05:00:44;1.13;;;0.70;;
30872;SDS011;17579;42.690;2.586;2023-04-25T05:03:15;0.93;;;0.85;;
30872;SDS011;17579;42.690;2.586;2023-04-25T05:05:43;1.23;;;0.90;;
30872;SDS011;17579;42.690;2.586;2023-04-25T05:08:12;1.30;;;1.00;;
30872;SDS011;17579;42.690;2.586;2023-04-25T05:10:38;3.00;;;1.23;;
30872;SDS011;17579;42.690;2.586;2023-04-25T05:13:06;2.08;;;1.23;;
30872;SDS011;17579;42.690;2.586;2023-04-25T05:15:32;1.75;;;1.20;;
30872;SDS011;17579;42.690;2.586;2023-04-25T05:18:16;1.25;;;1.13;;
30872;SDS011;17579;42.690;2.586;2023-04-25T05:20:44;1.30;;;1.00;;
30872;SDS011;17579;42.690;2.586;2023-04-25T05:23:33;0.82;;;0.77;;
30872;SDS011;17579;42.690;2.586;2023-04-25T05:25:59;2.10;;;1.00;;
30872;SDS011;17579;42.690;2.586;2023-04-25T05:28:28;2.75;;;1.90;;
30872;SDS011;17579;42.690;2.586;2023-04-25T05:30:54;1.88;;;1.00;;
30872;SDS011;17579;42.690;2.586;2023-04-25T05:33:19;2.72;;;1.02;;
30872;SDS011;17579;42.690;2.586;2023-04-25T05:36:21;2.15;;;1.00;;
30872;SDS011;17579;42.690;2.586;2023-04-25T05:38:47;2.50;;;1.52;;
30872;SDS011;17579;42.690;2.586;2023-04-25T05:41:13;1.98;;;1.00;;
30872;SDS011;17579;42.690;2.586;2023-04-25T05:43:42;1.58;;;1.17;;
30872;SDS011;17579;42.690;2.586;2023-04-25T05:46:21;1.55;;;1.00;;
30872;SDS011;17579;42.690;2.586;2023-04-25T05:48:49;1.17;;;0.80;;
30872;SDS011;17579;42.690;2.586;2023-04-25T05:51:20;1.20;;;0.95;;
30872;SDS011;17579;42.690;2.586;2023-04-25T05:53:49;2.58;;;1.25;;
30872;SDS011;17579;42.690;2.586;2023-04-25T05:56:18;1.10;;;1.00;;
30872;SDS011;17579;42.690;2.586;2023-04-25T05:58:49;1.55;;;1.30;;
30872;SDS011;17579;42.690;2.586;2023-04-25T06:01:17;0.82;;;0.82;;
30872;SDS011;17579;42.690;2.586;2023-04-25T06:03:48;1.65;;;0.90;;
30872;SDS011;17579;42.690;2.586;2023-04-25T06:06:16;0.80;;;0.80;;
30872;SDS011;17579;42.690;2.586;2023-04-25T06:08:42;1.63;;;0.82;;
30872;SDS011;17579;42.690;2.586;2023-04-25T06:11:08;1.23;;;1.08;;
30872;SDS011;17579;42.690;2.586;2023-04-25T06:13:39;0.98;;;0.88;;
30872;SDS011;17579;42.690;2.586;2023-04-25T06:16:07;0.70;;;0.70;;
30872;SDS011;17579;42.690;2.586;2023-04-25T06:18:36;0.80;;;0.80;;
30872;SDS011;17579;42.690;2.586;2023-04-25T06:21:04;2.40;;;1.00;;
30872;SDS011;17579;42.690;2.586;2023-04-25T06:23:33;1.30;;;1.20;;
30872;SDS011;17579;42.690;2.586;2023-04-25T06:26:02;1.95;;;0.95;;
30872;SDS011;17579;42.690;2.586;2023-04-25T06:28:28;1.20;;;0.82;;
30872;SDS011;17579;42.690;2.586;2023-04-25T06:30:54;3.58;;;0.85;;
30872;SDS011;17579;42.690;2.586;2023-04-25T06:33:22;14.68;;;2.30;;
30872;SDS011;17579;42.690;2.586;2023-04-25T06:35:51;17.45;;;2.28;;
30872;SDS011;17579;42.690;2.586;2023-04-25T06:38:22;9.18;;;1.50;;
30872;SDS011;17579;42.690;2.586;2023-04-25T06:40:48;3.30;;;0.88;;
30872;SDS011;17579;42.690;2.586;2023-04-25T06:43:14;1.90;;;0.90;;
30872;SDS011;17579;42.690;2.586;2023-04-25T06:46:03;1.45;;;1.10;;
30872;SDS011;17579;42.690;2.586;2023-04-25T06:48:32;1.65;;;0.88;;
30872;SDS011;17579;42.690;2.586;2023-04-25T06:50:58;1.42;;;0.90;;
30872;SDS011;17579;42.690;2.586;2023-04-25T06:53:24;1.33;;;0.90;;
30872;SDS011;17579;42.690;2.586;2023-04-25T06:55:52;2.63;;;1.00;;
30872;SDS011;17579;42.690;2.586;2023-04-25T06:58:18;4.10;;;0.95;;
30872;SDS011;17579;42.690;2.586;2023-04-25T07:00:56;1.70;;;0.90;;
30872;SDS011;17579;42.690;2.586;2023-04-25T07:03:22;1.73;;;1.08;;
30872;SDS011;17579;42.690;2.586;2023-04-25T07:06:11;2.67;;;1.20;;
30872;SDS011;17579;42.690;2.586;2023-04-25T07:08:39;1.15;;;0.90;;
30872;SDS011;17579;42.690;2.586;2023-04-25T07:11:08;1.15;;;0.95;;
30872;SDS011;17579;42.690;2.586;2023-04-25T07:13:34;4.03;;;1.00;;
30872;SDS011;17579;42.690;2.586;2023-04-25T07:16:00;2.05;;;0.95;;
30872;SDS011;17579;42.690;2.586;2023-04-25T07:18:25;2.50;;;1.02;;
30872;SDS011;17579;42.690;2.586;2023-04-25T07:20:59;1.90;;;1.00;;
30872;SDS011;17579;42.690;2.586;2023-04-25T07:23:35;2.50;;;0.95;;
30872;SDS011;17579;42.690;2.586;2023-04-25T07:26:12;1.35;;;1.00;;
30872;SDS011;17579;42.690;2.586;2023-04-25T07:28:41;0.93;;;0.80;;
30872;SDS011;17579;42.690;2.586;2023-04-25T07:31:08;1.77;;;0.90;;
30872;SDS011;17579;42.690;2.586;2023-04-25T07:33:34;1.05;;;0.80;;
30872;SDS011;17579;42.690;2.586;2023-04-25T07:36:13;2.15;;;0.73;;
30872;SDS011;17579;42.690;2.586;2023-04-25T07:38:55;2.75;;;1.00;;
30872;SDS011;17579;42.690;2.586;2023-04-25T07:44:14;0.80;;;0.80;;
30872;SDS011;17579;42.690;2.586;2023-04-25T07:47:06;1.30;;;0.80;;
30872;SDS011;17579;42.690;2.586;2023-04-25T07:49:33;0.80;;;0.80;;
30872;SDS011;17579;42.690;2.586;2023-04-25T07:52:03;2.08;;;1.02;;
30872;SDS011;17579;42.690;2.586;2023-04-25T07:54:33;1.65;;;0.90;;
30872;SDS011;17579;42.690;2.586;2023-04-25T07:57:03;1.63;;;1.02;;
30872;SDS011;17579;42.690;2.586;2023-04-25T07:59:42;1.23;;;0.50;;
30872;SDS011;17579;42.690;2.586;2023-04-25T08:02:13;1.40;;;0.80;;
30872;SDS011;17579;42.690;2.586;2023-04-25T08:04:41;0.82;;;0.73;;
30872;SDS011;17579;42.690;2.586;2023-04-25T08:07:07;1.67;;;0.70;;
30872;SDS011;17579;42.690;2.586;2023-04-25T08:09:32;0.63;;;0.60;;
30872;SDS011;17579;42.690;2.586;2023-04-25T08:12:14;1.27;;;0.93;;
30872;SDS011;17579;42.690;2.586;2023-04-25T08:14:44;2.53;;;0.90;;
30872;SDS011;17579;42.690;2.586;2023-04-25T08:17:16;0.80;;;0.70;;
30872;SDS011;17579;42.690;2.586;2023-04-25T08:19:41;1.83;;;0.80;;
30872;SDS011;17579;42.690;2.586;2023-04-25T08:22:09;1.15;;;0.75;;
30872;SDS011;17579;42.690;2.586;2023-04-25T08:24:58;1.42;;;0.70;;
30872;SDS011;17579;42.690;2.586;2023-04-25T08:27:24;0.77;;;0.70;;
30872;SDS011;17579;42.690;2.586;2023-04-25T08:29:55;1.45;;;0.85;;
30872;SDS011;17579;42.690;2.586;2023-04-25T08:32:24;0.85;;;0.65;;
30872;SDS011;17579;42.690;2.586;2023-04-25T08:34:53;0.88;;;0.63;;
30872;SDS011;17579;42.690;2.586;2023-04-25T08:37:29;1.20;;;0.65;;
30872;SDS011;17579;42.690;2.586;2023-04-25T08:40:04;0.73;;;0.68;;
30872;SDS011;17579;42.690;2.586;2023-04-25T08:42:38;0.88;;;0.60;;
30872;SDS011;17579;42.690;2.586;2023-04-25T08:45:34;0.50;;;0.50;;
30872;SDS011;17579;42.690;2.586;2023-04-25T08:48:03;0.50;;;0.50;;
30872;SDS011;17579;42.690;2.586;2023-04-25T08:50:33;0.57;;;0.50;;
30872;SDS011;17579;42.690;2.586;2023-04-25T08:53:02;0.40;;;0.40;;
30872;SDS011;17579;42.690;2.586;2023-04-25T08:55:32;0.50;;;0.50;;
30872;SDS011;17579;42.690;2.586;2023-04-25T08:58:03;0.30;;;0.30;;
30872;SDS011;17579;42.690;2.586;2023-04-25T09:00:39;0.85;;;0.50;;
30872;SDS011;17579;42.690;2.586;2023-04-25T09:03:16;0.52;;;0.40;;
30872;SDS011;17579;42.690;2.586;2023-04-25T09:06:03;0.30;;;0.30;;
30872;SDS011;17579;42.690;2.586;2023-04-25T09:08:29;0.40;;;0.40;;
30872;SDS011;17579;42.690;2.586;2023-04-25T09:11:00;0.50;;;0.28;;
30872;SDS011;17579;42.690;2.586;2023-04-25T09:13:28;0.40;;;0.25;;
30872;SDS011;17579;42.690;2.586;2023-04-25T09:16:07;0.40;;;0.40;;
30872;SDS011;17579;42.690;2.586;2023-04-25T09:18:41;0.40;;;0.40;;
30872;SDS011;17579;42.690;2.586;2023-04-25T09:21:21;0.40;;;0.40;;
30872;SDS011;17579;42.690;2.586;2023-04-25T09:29:57;0.77;;;0.55;;
30872;SDS011;17579;42.690;2.586;2023-04-25T09:32:25;1.20;;;0.63;;
30872;SDS011;17579;42.690;2.586;2023-04-25T09:34:52;0.55;;;0.50;;
30872;SDS011;17579;42.690;2.586;2023-04-25T09:37:22;0.40;;;0.40;;
30872;SDS011;17579;42.690;2.586;2023-04-25T09:39:53;1.05;;;0.52;;
30872;SDS011;17579;42.690;2.586;2023-04-25T09:42:30;0.30;;;0.30;;
30872;SDS011;17579;42.690;2.586;2023-04-25T09:45:01;1.05;;;0.57;;
30872;SDS011;17579;42.690;2.586;2023-04-25T09:47:29;0.35;;;0.35;;
30872;SDS011;17579;42.690;2.586;2023-04-25T09:50:03;0.32;;;0.32;;
30872;SDS011;17579;42.690;2.586;2023-04-25T09:52:43;0.43;;;0.43;;
30872;SDS011;17579;42.690;2.586;2023-04-25T09:55:09;0.80;;;0.80;;
30872;SDS011;17579;42.690;2.586;2023-04-25T09:57:34;0.40;;;0.40;;
30872;SDS011;17579;42.690;2.586;2023-04-25T10:00:24;0.30;;;0.30;;
30872;SDS011;17579;42.690;2.586;2023-04-25T10:02:53;0.40;;;0.40;;
30872;SDS011;17579;42.690;2.586;2023-04-25T10:05:21;0.55;;;0.40;;
30872;SDS011;17579;42.690;2.586;2023-04-25T10:07:47;0.82;;;0.40;;
30872;SDS011;17579;42.690;2.586;2023-04-25T10:10:13;0.50;;;0.50;;
30872;SDS011;17579;42.690;2.586;2023-04-25T10:12:47;0.50;;;0.50;;
30872;SDS011;17579;42.690;2.586;2023-04-25T10:15:23;0.65;;;0.50;;
30872;SDS011;17579;42.690;2.586;2023-04-25T10:17:59;0.47;;;0.43;;
30872;SDS011;17579;42.690;2.586;2023-04-25T10:20:34;0.50;;;0.50;;
30872;SDS011;17579;42.690;2.586;2023-04-25T10:23:13;1.00;;;0.90;;
30872;SDS011;17579;42.690;2.586;2023-04-25T10:26:06;0.60;;;0.60;;
30872;SDS011;17579;42.690;2.586;2023-04-25T10:31:13;0.85;;;0.70;;
30872;SDS011;17579;42.690;2.586;2023-04-25T10:33:46;0.45;;;0.43;;
30872;SDS011;17579;42.690;2.586;2023-04-25T10:36:23;0.80;;;0.63;;
30872;SDS011;17579;42.690;2.586;2023-04-25T10:38:52;0.60;;;0.60;;
30872;SDS011;17579;42.690;2.586;2023-04-25T10:41:21;0.60;;;0.60;;
30872;SDS011;17579;42.690;2.586;2023-04-25T10:43:48;1.23;;;0.98;;
30872;SDS011;17579;42.690;2.586;2023-04-25T10:46:16;1.02;;;0.80;;
30872;SDS011;17579;42.690;2.586;2023-04-25T10:48:44;0.80;;;0.80;;
30872;SDS011;17579;42.690;2.586;2023-04-25T10:56:18;0.65;;;0.55;;
30872;SDS011;17579;42.690;2.586;2023-04-25T10:58:51;0.20;;;0.20;;
30872;SDS011;17579;42.690;2.586;2023-04-25T11:04:19;0.30;;;0.30;;
30872;SDS011;17579;42.690;2.586;2023-04-25T11:09:25;0.70;;;0.40;;
30872;SDS011;17579;42.690;2.586;2023-04-25T11:11:57;0.20;;;0.20;;
30872;SDS011;17579;42.690;2.586;2023-04-25T11:14:43;0.20;;;0.20;;
30872;SDS011;17579;42.690;2.586;2023-04-25T11:17:17;0.20;;;0.20;;
30872;SDS011;17579;42.690;2.586;2023-04-25T11:19:52;0.20;;;0.20;;
30872;SDS011;17579;42.690;2.586;2023-04-25T11:22:45;0.20;;;0.20;;
30872;SDS011;17579;42.690;2.586;2023-04-25T11:25:13;1.60;;;0.20;;
30872;SDS011;17579;42.690;2.586;2023-04-25T11:30:18;0.32;;;0.20;;
30872;SDS011;17579;42.690;2.586;2023-04-25T11:32:44;0.10;;;0.10;;
30872;SDS011;17579;42.690;2.586;2023-04-25T11:35:17;0.68;;;0.10;;
30872;SDS011;17579;42.690;2.586;2023-04-25T11:38:11;0.10;;;0.10;;
30872;SDS011;17579;42.690;2.586;2023-04-25T11:43:28;0.10;;;0.10;;
30872;SDS011;17579;42.690;2.586;2023-04-25T11:45:59;1.17;;;0.20;;
30872;SDS011;17579;42.690;2.586;2023-04-25T11:48:28;0.55;;;0.17;;
30872;SDS011;17579;42.690;2.586;2023-04-25T11:51:08;0.10;;;0.10;;
30872;SDS011;17579;42.690;2.586;2023-04-25T11:53:34;0.20;;;0.20;;
30872;SDS011;17579;42.690;2.586;2023-04-25T11:56:20;0.10;;;0.10;;
30872;SDS011;17579;42.690;2.586;2023-04-25T12:04:22;0.10;;;0.10;;
30872;SDS011;17579;42.690;2.586;2023-04-25T12:06:49;0.13;;;0.13;;
30872;SDS011;17579;42.690;2.586;2023-04-25T12:09:38;0.20;;;0.20;;
30872;SDS011;17579;42.690;2.586;2023-04-25T12:12:09;0.30;;;0.20;;
30872;SDS011;17579;42.690;2.586;2023-04-25T12:18:11;0.20;;;0.20;;
30872;SDS011;17579;42.690;2.586;2023-04-25T12:20:52;0.30;;;0.10;;
30872;SDS011;17579;42.690;2.586;2023-04-25T12:23:38;0.10;;;0.10;;
30872;SDS011;17579;42.690;2.586;2023-04-25T12:26:07;0.22;;;0.22;;
30872;SDS011;17579;42.690;2.586;2023-04-25T12:28:33;0.20;;;0.20;;
30872;SDS011;17579;42.690;2.586;2023-04-25T12:34:06;0.20;;;0.20;;
30872;SDS011;17579;42.690;2.586;2023-04-25T12:36:42;0.20;;;0.20;;
30872;SDS011;17579;42.690;2.586;2023-04-25T12:39:30;0.30;;;0.30;;
30872;SDS011;17579;42.690;2.586;2023-04-25T12:42:02;0.15;;;0.15;;
30872;SDS011;17579;42.690;2.586;2023-04-25T12:44:43;0.20;;;0.20;;
30872;SDS011;17579;42.690;2.586;2023-04-25T12:47:14;0.10;;;0.10;;
30872;SDS011;17579;42.690;2.586;2023-04-25T12:49:42;0.30;;;0.30;;
30872;SDS011;17579;42.690;2.586;2023-04-25T12:52:17;0.20;;;0.20;;
30872;SDS011;17579;42.690;2.586;2023-04-25T12:57:58;0.32;;;0.20;;
30872;SDS011;17579;42.690;2.586;2023-04-25T13:00:27;0.20;;;0.20;;
30872;SDS011;17579;42.690;2.586;2023-04-25T13:03:04;0.20;;;0.20;;
30872;SDS011;17579;42.690;2.586;2023-04-25T13:05:30;0.20;;;0.20;;
30872;SDS011;17579;42.690;2.586;2023-04-25T13:07:58;0.20;;;0.20;;
30872;SDS011;17579;42.690;2.586;2023-04-25T13:10:24;0.20;;;0.20;;
30872;SDS011;17579;42.690;2.586;2023-04-25T13:13:03;0.32;;;0.20;;
30872;SDS011;17579;42.690;2.586;2023-04-25T13:15:31;0.20;;;0.20;;
30872;SDS011;17579;42.690;2.586;2023-04-25T13:18:03;0.20;;;0.20;;
30872;SDS011;17579;42.690;2.586;2023-04-25T13:20:32;0.20;;;0.20;;
30872;SDS011;17579;42.690;2.586;2023-04-25T13:23:08;0.20;;;0.20;;
30872;SDS011;17579;42.690;2.586;2023-04-25T13:25:33;0.20;;;0.20;;
30872;SDS011;17579;42.690;2.586;2023-04-25T13:28:22;0.28;;;0.20;;
30872;SDS011;17579;42.690;2.586;2023-04-25T13:30:51;0.20;;;0.20;;
30872;SDS011;17579;42.690;2.586;2023-04-25T13:33:26;0.20;;;0.20;;
30872;SDS011;17579;42.690;2.586;2023-04-25T13:35:58;0.30;;;0.30;;
30872;SDS011;17579;42.690;2.586;2023-04-25T13:38:25;0.25;;;0.25;;
30872;SDS011;17579;42.690;2.586;2023-04-25T13:40:51;0.20;;;0.20;;
30872;SDS011;17579;42.690;2.586;2023-04-25T13:45:59;0.30;;;0.30;;
30872;SDS011;17579;42.690;2.586;2023-04-25T13:48:44;0.28;;;0.20;;
30872;SDS011;17579;42.690;2.586;2023-04-25T13:51:11;0.20;;;0.20;;
30872;SDS011;17579;42.690;2.586;2023-04-25T13:53:41;0.20;;;0.20;;
30872;SDS011;17579;42.690;2.586;2023-04-25T13:56:20;0.22;;;0.22;;
30872;SDS011;17579;42.690;2.586;2023-04-25T13:58:49;0.30;;;0.30;;
30872;SDS011;17579;42.690;2.586;2023-04-25T14:01:18;0.20;;;0.20;;
30872;SDS011;17579;42.690;2.586;2023-04-25T14:03:46;0.22;;;0.22;;
30872;SDS011;17579;42.690;2.586;2023-04-25T14:06:11;0.40;;;0.40;;
30872;SDS011;17579;42.690;2.586;2023-04-25T14:08:48;0.10;;;0.10;;
30872;SDS011;17579;42.690;2.586;2023-04-25T14:11:22;0.20;;;0.20;;
30872;SDS011;17579;42.690;2.586;2023-04-25T14:13:56;0.30;;;0.30;;
30872;SDS011;17579;42.690;2.586;2023-04-25T14:16:24;0.38;;;0.20;;
30872;SDS011;17579;42.690;2.586;2023-04-25T14:18:50;0.10;;;0.10;;
30872;SDS011;17579;42.690;2.586;2023-04-25T14:21:19;0.30;;;0.30;;
30872;SDS011;17579;42.690;2.586;2023-04-25T14:28:57;0.20;;;0.20;;
30872;SDS011;17579;42.690;2.586;2023-04-25T14:34:46;0.20;;;0.20;;
30872;SDS011;17579;42.690;2.586;2023-04-25T14:37:36;0.30;;;0.30;;
30872;SDS011;17579;42.690;2.586;2023-04-25T14:43:25;0.20;;;0.20;;
30872;SDS011;17579;42.690;2.586;2023-04-25T14:46:07;0.20;;;0.20;;
30872;SDS011;17579;42.690;2.586;2023-04-25T14:51:53;0.20;;;0.20;;
30872;SDS011;17579;42.690;2.586;2023-04-25T14:54:24;0.10;;;0.10;;
30872;SDS011;17579;42.690;2.586;2023-04-25T14:57:19;0.40;;;0.40;;
30872;SDS011;17579;42.690;2.586;2023-04-25T15:00:14;0.10;;;0.10;;
30872;SDS011;17579;42.690;2.586;2023-04-25T15:02:56;0.20;;;0.20;;
30872;SDS011;17579;42.690;2.586;2023-04-25T15:05:25;0.60;;;0.20;;
30872;SDS011;17579;42.690;2.586;2023-04-25T15:08:18;0.10;;;0.10;;
30872;SDS011;17579;42.690;2.586;2023-04-25T15:14:14;0.10;;;0.10;;
30872;SDS011;17579;42.690;2.586;2023-04-25T15:20:16;0.15;;;0.15;;
30872;SDS011;17579;42.690;2.586;2023-04-25T15:22:54;0.30;;;0.30;;
30872;SDS011;17579;42.690;2.586;2023-04-25T15:25:23;0.20;;;0.20;;
30872;SDS011;17579;42.690;2.586;2023-04-25T15:28:06;0.13;;;0.13;;
30872;SDS011;17579;42.690;2.586;2023-04-25T15:30:42;0.10;;;0.10;;
30872;SDS011;17579;42.690;2.586;2023-04-25T15:33:31;0.10;;;0.10;;
30872;SDS011;17579;42.690;2.586;2023-04-25T15:36:30;0.10;;;0.10;;
30872;SDS011;17579;42.690;2.586;2023-04-25T15:39:23;0.10;;;0.10;;
30872;SDS011;17579;42.690;2.586;2023-04-25T15:44:51;0.10;;;0.10;;
30872;SDS011;17579;42.690;2.586;2023-04-25T15:47:55;0.10;;;0.10;;
30872;SDS011;17579;42.690;2.586;2023-04-25T15:50:12;0.10;;;0.10;;
30872;SDS011;17579;42.690;2.586;2023-04-25T15:52:40;0.10;;;0.10;;
30872;SDS011;17579;42.690;2.586;2023-04-25T15:55:26;0.10;;;0.10;;
30872;SDS011;17579;42.690;2.586;2023-04-25T15:57:54;0.10;;;0.10;;
30872;SDS011;17579;42.690;2.586;2023-04-25T16:00:38;0.55;;;0.10;;
30872;SDS011;17579;42.690;2.586;2023-04-25T16:03:09;0.10;;;0.10;;
30872;SDS011;17579;42.690;2.586;2023-04-25T16:06:13;0.10;;;0.10;;
30872;SDS011;17579;42.690;2.586;2023-04-25T16:08:53;0.10;;;0.10;;
30872;SDS011;17579;42.690;2.586;2023-04-25T16:11:37;0.00;;;0.00;;
30872;SDS011;17579;42.690;2.586;2023-04-25T16:14:03;0.10;;;0.10;;
30872;SDS011;17579;42.690;2.586;2023-04-25T16:16:42;0.10;;;0.10;;
30872;SDS011;17579;42.690;2.586;2023-04-25T16:19:46;0.10;;;0.10;;
30872;SDS011;17579;42.690;2.586;2023-04-25T16:22:21;0.00;;;0.00;;
30872;SDS011;17579;42.690;2.586;2023-04-25T16:25:01;0.10;;;0.10;;
30872;SDS011;17579;42.690;2.586;2023-04-25T16:27:28;0.10;;;0.10;;
30872;SDS011;17579;42.690;2.586;2023-04-25T16:29:58;0.10;;;0.10;;
30872;SDS011;17579;42.690;2.586;2023-04-25T16:32:47;1.33;;;0.10;;
30872;SDS011;17579;42.690;2.586;2023-04-25T16:35:16;0.00;;;0.00;;